sensor_id;sensor_type;location;lat;lon;timestamp;P1;durP1;ratioP1;P2;durP2;ratioP2
16101;SDS011;56411;52.964;10.540;2023-06-26T00:01:30;16.05;;;13.27;;
16101;SDS011;56411;52.964;10.540;2023-06-26T00:03:57;16.92;;;13.18;;
16101;SDS011;56411;52.964;10.540;2023-06-26T00:06:26;17.45;;;13.98;;
16101;SDS011;56411;52.964;10.540;2023-06-26T00:08:54;16.67;;;13.27;;
16101;SDS011;56411;52.964;10.540;2023-06-26T00:11:22;14.90;;;12.90;;
16101;SDS011;56411;52.964;10.540;2023-06-26T00:13:49;15.35;;;13.10;;
16101;SDS011;56411;52.964;10.540;2023-06-26T00:16:16;17.88;;;13.50;;
16101;SDS011;56411;52.964;10.540;2023-06-26T00:18:43;15.18;;;13.02;;
16101;SDS011;56411;52.964;10.540;2023-06-26T00:21:10;16.58;;;14.00;;
16101;SDS011;56411;52.964;10.540;2023-06-26T00:23:39;16.20;;;13.40;;
16101;SDS011;56411;52.964;10.540;2023-06-26T00:26:06;15.48;;;12.95;;
16101;SDS011;56411;52.964;10.540;2023-06-26T00:28:34;16.52;;;13.55;;
16101;SDS011;56411;52.964;10.540;2023-06-26T00:31:01;16.10;;;13.60;;
16101;SDS011;56411;52.964;10.540;2023-06-26T00:33:28;17.75;;;13.95;;
16101;SDS011;56411;52.964;10.540;2023-06-26T00:35:55;17.20;;;13.52;;
16101;SDS011;56411;52.964;10.540;2023-06-26T00:38:22;15.98;;;14.02;;
16101;SDS011;56411;52.964;10.540;2023-06-26T00:40:50;16.55;;;13.27;;
16101;SDS011;56411;52.964;10.540;2023-06-26T00:43:17;15.75;;;13.02;;
16101;SDS011;56411;52.964;10.540;2023-06-26T00:45:44;16.15;;;13.30;;
16101;SDS011;56411;52.964;10.540;2023-06-26T00:48:11;16.23;;;13.27;;
16101;SDS011;56411;52.964;10.540;2023-06-26T00:50:38;15.98;;;13.38;;
16101;SDS011;56411;52.964;10.540;2023-06-26T00:53:05;16.00;;;13.93;;
16101;SDS011;56411;52.964;10.540;2023-06-26T00:55:32;16.80;;;13.63;;
16101;SDS011;56411;52.964;10.540;2023-06-26T00:58:00;16.98;;;13.95;;
16101;SDS011;56411;52.964;10.540;2023-06-26T01:00:27;16.35;;;13.02;;
16101;SDS011;56411;52.964;10.540;2023-06-26T01:02:55;16.23;;;13.73;;
16101;SDS011;56411;52.964;10.540;2023-06-26T01:05:24;16.85;;;14.05;;
16101;SDS011;56411;52.964;10.540;2023-06-26T01:07:51;16.70;;;13.45;;
16101;SDS011;56411;52.964;10.540;2023-06-26T01:10:19;17.10;;;14.32;;
16101;SDS011;56411;52.964;10.540;2023-06-26T01:12:46;16.23;;;13.52;;
16101;SDS011;56411;52.964;10.540;2023-06-26T01:15:14;16.25;;;13.65;;
16101;SDS011;56411;52.964;10.540;2023-06-26T01:17:41;16.65;;;13.45;;
16101;SDS011;56411;52.964;10.540;2023-06-26T01:20:10;16.85;;;13.85;;
16101;SDS011;56411;52.964;10.540;2023-06-26T01:22:39;17.95;;;13.77;;
16101;SDS011;56411;52.964;10.540;2023-06-26T01:25:15;16.13;;;13.38;;
16101;SDS011;56411;52.964;10.540;2023-06-26T01:27:50;17.00;;;13.48;;
16101;SDS011;56411;52.964;10.540;2023-06-26T01:30:19;17.38;;;14.00;;
16101;SDS011;56411;52.964;10.540;2023-06-26T01:32:47;16.52;;;13.82;;
16101;SDS011;56411;52.964;10.540;2023-06-26T01:35:15;18.15;;;14.38;;
16101;SDS011;56411;52.964;10.540;2023-06-26T01:37:43;16.50;;;13.60;;
16101;SDS011;56411;52.964;10.540;2023-06-26T01:40:10;17.58;;;14.43;;
16101;SDS011;56411;52.964;10.540;2023-06-26T01:42:38;18.25;;;14.23;;
16101;SDS011;56411;52.964;10.540;2023-06-26T01:45:10;17.08;;;13.43;;
16101;SDS011;56411;52.964;10.540;2023-06-26T01:47:44;16.23;;;13.52;;
16101;SDS011;56411;52.964;10.540;2023-06-26T01:50:16;16.63;;;13.65;;
16101;SDS011;56411;52.964;10.540;2023-06-26T01:52:49;16.92;;;13.85;;
16101;SDS011;56411;52.964;10.540;2023-06-26T01:55:23;16.80;;;14.10;;
16101;SDS011;56411;52.964;10.540;2023-06-26T01:57:58;18.13;;;13.52;;
16101;SDS011;56411;52.964;10.540;2023-06-26T02:00:27;17.50;;;15.13;;
16101;SDS011;56411;52.964;10.540;2023-06-26T02:02:55;17.25;;;14.25;;
16101;SDS011;56411;52.964;10.540;2023-06-26T02:05:22;18.17;;;15.43;;
16101;SDS011;56411;52.964;10.540;2023-06-26T02:07:49;16.58;;;14.10;;
16101;SDS011;56411;52.964;10.540;2023-06-26T02:10:16;17.13;;;14.35;;
16101;SDS011;56411;52.964;10.540;2023-06-26T02:12:43;18.05;;;14.85;;
16101;SDS011;56411;52.964;10.540;2023-06-26T02:15:10;18.08;;;14.43;;
16101;SDS011;56411;52.964;10.540;2023-06-26T02:17:38;17.65;;;14.32;;
16101;SDS011;56411;52.964;10.540;2023-06-26T02:20:06;16.95;;;14.50;;
16101;SDS011;56411;52.964;10.540;2023-06-26T02:22:35;17.05;;;14.82;;
16101;SDS011;56411;52.964;10.540;2023-06-26T02:25:02;17.17;;;13.98;;
16101;SDS011;56411;52.964;10.540;2023-06-26T02:27:29;18.85;;;14.70;;
16101;SDS011;56411;52.964;10.540;2023-06-26T02:29:56;17.15;;;14.43;;
16101;SDS011;56411;52.964;10.540;2023-06-26T02:32:23;18.02;;;14.63;;
16101;SDS011;56411;52.964;10.540;2023-06-26T02:34:52;19.10;;;15.50;;
16101;SDS011;56411;52.964;10.540;2023-06-26T02:37:19;22.00;;;18.77;;
16101;SDS011;56411;52.964;10.540;2023-06-26T02:39:46;18.27;;;15.00;;
16101;SDS011;56411;52.964;10.540;2023-06-26T02:42:13;18.55;;;14.13;;
16101;SDS011;56411;52.964;10.540;2023-06-26T02:44:40;20.10;;;14.95;;
16101;SDS011;56411;52.964;10.540;2023-06-26T02:47:07;18.27;;;14.45;;
16101;SDS011;56411;52.964;10.540;2023-06-26T02:49:34;18.27;;;14.73;;
16101;SDS011;56411;52.964;10.540;2023-06-26T02:52:02;19.13;;;14.02;;
16101;SDS011;56411;52.964;10.540;2023-06-26T02:54:29;16.85;;;14.13;;
16101;SDS011;56411;52.964;10.540;2023-06-26T02:56:57;16.48;;;14.23;;
16101;SDS011;56411;52.964;10.540;2023-06-26T02:59:25;18.13;;;15.00;;
16101;SDS011;56411;52.964;10.540;2023-06-26T03:01:52;19.95;;;14.43;;
16101;SDS011;56411;52.964;10.540;2023-06-26T03:04:22;19.42;;;14.13;;
16101;SDS011;56411;52.964;10.540;2023-06-26T03:06:49;19.77;;;14.98;;
16101;SDS011;56411;52.964;10.540;2023-06-26T03:09:17;17.05;;;13.85;;
16101;SDS011;56411;52.964;10.540;2023-06-26T03:11:44;17.10;;;14.43;;
16101;SDS011;56411;52.964;10.540;2023-06-26T03:14:11;18.63;;;15.50;;
16101;SDS011;56411;52.964;10.540;2023-06-26T03:16:38;19.45;;;15.05;;
16101;SDS011;56411;52.964;10.540;2023-06-26T03:19:06;20.08;;;15.02;;
16101;SDS011;56411;52.964;10.540;2023-06-26T03:21:33;17.38;;;14.25;;
16101;SDS011;56411;52.964;10.540;2023-06-26T03:24:00;18.10;;;14.73;;
16101;SDS011;56411;52.964;10.540;2023-06-26T03:26:28;16.92;;;13.93;;
16101;SDS011;56411;52.964;10.540;2023-06-26T03:28:55;17.75;;;14.13;;
16101;SDS011;56411;52.964;10.540;2023-06-26T03:31:23;18.08;;;14.23;;
16101;SDS011;56411;52.964;10.540;2023-06-26T03:33:50;17.85;;;14.80;;
16101;SDS011;56411;52.964;10.540;2023-06-26T03:36:16;17.83;;;14.68;;
16101;SDS011;56411;52.964;10.540;2023-06-26T03:38:43;19.20;;;14.93;;
16101;SDS011;56411;52.964;10.540;2023-06-26T03:41:10;19.95;;;14.50;;
16101;SDS011;56411;52.964;10.540;2023-06-26T03:43:39;19.48;;;15.07;;
16101;SDS011;56411;52.964;10.540;2023-06-26T03:46:06;19.67;;;15.25;;
16101;SDS011;56411;52.964;10.540;2023-06-26T03:48:33;19.77;;;14.68;;
16101;SDS011;56411;52.964;10.540;2023-06-26T03:50:59;17.58;;;14.80;;
16101;SDS011;56411;52.964;10.540;2023-06-26T03:53:27;17.75;;;14.93;;
16101;SDS011;56411;52.964;10.540;2023-06-26T03:55:54;19.52;;;15.05;;
16101;SDS011;56411;52.964;10.540;2023-06-26T03:58:21;17.38;;;15.00;;
16101;SDS011;56411;52.964;10.540;2023-06-26T04:00:49;18.08;;;14.00;;
16101;SDS011;56411;52.964;10.540;2023-06-26T04:03:16;20.40;;;15.52;;
16101;SDS011;56411;52.964;10.540;2023-06-26T04:05:43;18.17;;;15.52;;
16101;SDS011;56411;52.964;10.540;2023-06-26T04:08:10;19.50;;;14.48;;
16101;SDS011;56411;52.964;10.540;2023-06-26T04:10:37;18.67;;;14.23;;
16101;SDS011;56411;52.964;10.540;2023-06-26T04:13:04;16.95;;;13.90;;
16101;SDS011;56411;52.964;10.540;2023-06-26T04:15:31;18.83;;;14.32;;
16101;SDS011;56411;52.964;10.540;2023-06-26T04:17:59;17.38;;;14.10;;
16101;SDS011;56411;52.964;10.540;2023-06-26T04:20:26;19.90;;;14.43;;
16101;SDS011;56411;52.964;10.540;2023-06-26T04:22:53;18.38;;;14.52;;
16101;SDS011;56411;52.964;10.540;2023-06-26T04:25:20;18.75;;;14.52;;
16101;SDS011;56411;52.964;10.540;2023-06-26T04:27:47;16.48;;;13.57;;
16101;SDS011;56411;52.964;10.540;2023-06-26T04:30:15;16.63;;;13.50;;
16101;SDS011;56411;52.964;10.540;2023-06-26T04:32:42;17.80;;;13.75;;
16101;SDS011;56411;52.964;10.540;2023-06-26T04:35:11;15.70;;;12.63;;
16101;SDS011;56411;52.964;10.540;2023-06-26T04:37:39;18.85;;;13.20;;
16101;SDS011;56411;52.964;10.540;2023-06-26T04:40:06;15.88;;;12.80;;
16101;SDS011;56411;52.964;10.540;2023-06-26T04:42:36;16.27;;;12.52;;
16101;SDS011;56411;52.964;10.540;2023-06-26T04:45:04;17.20;;;12.88;;
16101;SDS011;56411;52.964;10.540;2023-06-26T04:47:32;16.60;;;12.15;;
16101;SDS011;56411;52.964;10.540;2023-06-26T04:49:59;15.73;;;12.30;;
16101;SDS011;56411;52.964;10.540;2023-06-26T04:52:27;17.83;;;13.23;;
16101;SDS011;56411;52.964;10.540;2023-06-26T04:54:54;15.88;;;12.27;;
16101;SDS011;56411;52.964;10.540;2023-06-26T04:57:21;14.95;;;11.70;;
16101;SDS011;56411;52.964;10.540;2023-06-26T04:59:48;16.25;;;12.02;;
16101;SDS011;56411;52.964;10.540;2023-06-26T05:02:15;14.40;;;11.05;;
16101;SDS011;56411;52.964;10.540;2023-06-26T05:04:42;16.27;;;11.32;;
16101;SDS011;56411;52.964;10.540;2023-06-26T05:07:09;15.43;;;11.07;;
16101;SDS011;56411;52.964;10.540;2023-06-26T05:09:38;15.75;;;11.15;;
16101;SDS011;56411;52.964;10.540;2023-06-26T05:12:05;15.05;;;10.90;;
16101;SDS011;56411;52.964;10.540;2023-06-26T05:14:32;14.02;;;9.93;;
16101;SDS011;56411;52.964;10.540;2023-06-26T05:16:59;14.75;;;10.07;;
16101;SDS011;56411;52.964;10.540;2023-06-26T05:19:26;14.00;;;9.98;;
16101;SDS011;56411;52.964;10.540;2023-06-26T05:21:53;13.68;;;9.50;;
16101;SDS011;56411;52.964;10.540;2023-06-26T05:24:21;14.75;;;9.95;;
16101;SDS011;56411;52.964;10.540;2023-06-26T05:26:52;14.15;;;9.30;;
16101;SDS011;56411;52.964;10.540;2023-06-26T05:29:19;13.50;;;9.27;;
16101;SDS011;56411;52.964;10.540;2023-06-26T05:31:47;12.23;;;8.77;;
16101;SDS011;56411;52.964;10.540;2023-06-26T05:34:17;12.98;;;8.90;;
16101;SDS011;56411;52.964;10.540;2023-06-26T05:36:48;14.02;;;9.50;;
16101;SDS011;56411;52.964;10.540;2023-06-26T05:39:17;14.25;;;9.07;;
16101;SDS011;56411;52.964;10.540;2023-06-26T05:41:44;12.95;;;8.60;;
16101;SDS011;56411;52.964;10.540;2023-06-26T05:44:13;13.40;;;8.98;;
16101;SDS011;56411;52.964;10.540;2023-06-26T05:46:40;13.15;;;8.45;;
16101;SDS011;56411;52.964;10.540;2023-06-26T05:49:07;14.07;;;9.02;;
16101;SDS011;56411;52.964;10.540;2023-06-26T05:51:35;11.95;;;8.35;;
16101;SDS011;56411;52.964;10.540;2023-06-26T05:54:02;12.88;;;8.32;;
16101;SDS011;56411;52.964;10.540;2023-06-26T05:56:30;13.98;;;8.20;;
16101;SDS011;56411;52.964;10.540;2023-06-26T05:58:58;13.73;;;8.30;;
16101;SDS011;56411;52.964;10.540;2023-06-26T06:01:28;13.20;;;8.43;;
16101;SDS011;56411;52.964;10.540;2023-06-26T06:03:55;12.10;;;7.75;;
16101;SDS011;56411;52.964;10.540;2023-06-26T06:06:22;11.85;;;7.78;;
16101;SDS011;56411;52.964;10.540;2023-06-26T06:08:49;12.88;;;7.63;;
16101;SDS011;56411;52.964;10.540;2023-06-26T06:11:16;12.45;;;7.97;;
16101;SDS011;56411;52.964;10.540;2023-06-26T06:13:43;13.07;;;7.63;;
16101;SDS011;56411;52.964;10.540;2023-06-26T06:16:10;12.63;;;7.75;;
16101;SDS011;56411;52.964;10.540;2023-06-26T06:18:39;12.25;;;7.75;;
16101;SDS011;56411;52.964;10.540;2023-06-26T06:21:06;12.32;;;7.97;;
16101;SDS011;56411;52.964;10.540;2023-06-26T06:23:33;12.27;;;7.43;;
16101;SDS011;56411;52.964;10.540;2023-06-26T06:26:00;11.70;;;7.65;;
16101;SDS011;56411;52.964;10.540;2023-06-26T06:28:27;11.50;;;7.60;;
16101;SDS011;56411;52.964;10.540;2023-06-26T06:30:54;12.65;;;7.50;;
16101;SDS011;56411;52.964;10.540;2023-06-26T06:33:21;13.18;;;7.32;;
16101;SDS011;56411;52.964;10.540;2023-06-26T06:35:49;11.18;;;7.60;;
16101;SDS011;56411;52.964;10.540;2023-06-26T06:38:16;12.93;;;7.55;;
16101;SDS011;56411;52.964;10.540;2023-06-26T06:40:43;11.20;;;7.07;;
16101;SDS011;56411;52.964;10.540;2023-06-26T06:43:10;11.25;;;7.40;;
16101;SDS011;56411;52.964;10.540;2023-06-26T06:45:37;13.43;;;7.72;;
16101;SDS011;56411;52.964;10.540;2023-06-26T06:48:04;11.40;;;7.28;;
16101;SDS011;56411;52.964;10.540;2023-06-26T06:50:31;12.45;;;7.45;;
16101;SDS011;56411;52.964;10.540;2023-06-26T06:53:00;10.88;;;6.90;;
16101;SDS011;56411;52.964;10.540;2023-06-26T06:55:27;12.02;;;7.68;;
16101;SDS011;56411;52.964;10.540;2023-06-26T06:57:54;11.63;;;7.15;;
16101;SDS011;56411;52.964;10.540;2023-06-26T07:00:21;10.77;;;7.03;;
16101;SDS011;56411;52.964;10.540;2023-06-26T07:02:48;11.60;;;7.43;;
16101;SDS011;56411;52.964;10.540;2023-06-26T07:05:15;12.75;;;7.57;;
16101;SDS011;56411;52.964;10.540;2023-06-26T07:07:42;12.27;;;7.45;;
16101;SDS011;56411;52.964;10.540;2023-06-26T07:10:12;10.88;;;7.10;;
16101;SDS011;56411;52.964;10.540;2023-06-26T07:12:39;11.55;;;7.22;;
16101;SDS011;56411;52.964;10.540;2023-06-26T07:15:07;11.57;;;7.07;;
16101;SDS011;56411;52.964;10.540;2023-06-26T07:17:34;11.00;;;7.00;;
16101;SDS011;56411;52.964;10.540;2023-06-26T07:20:03;13.75;;;8.35;;
16101;SDS011;56411;52.964;10.540;2023-06-26T07:22:32;12.52;;;7.47;;
16101;SDS011;56411;52.964;10.540;2023-06-26T07:24:59;11.23;;;6.70;;
16101;SDS011;56411;52.964;10.540;2023-06-26T07:27:27;11.07;;;7.18;;
16101;SDS011;56411;52.964;10.540;2023-06-26T07:29:54;10.82;;;6.68;;
16101;SDS011;56411;52.964;10.540;2023-06-26T07:32:21;11.77;;;6.85;;
16101;SDS011;56411;52.964;10.540;2023-06-26T07:34:48;11.25;;;6.82;;
16101;SDS011;56411;52.964;10.540;2023-06-26T07:37:15;11.82;;;6.80;;
16101;SDS011;56411;52.964;10.540;2023-06-26T07:39:42;10.77;;;6.80;;
16101;SDS011;56411;52.964;10.540;2023-06-26T07:42:09;13.68;;;9.10;;
16101;SDS011;56411;52.964;10.540;2023-06-26T07:44:37;10.55;;;6.85;;
16101;SDS011;56411;52.964;10.540;2023-06-26T07:47:04;13.10;;;8.43;;
16101;SDS011;56411;52.964;10.540;2023-06-26T07:49:31;30.77;;;9.88;;
16101;SDS011;56411;52.964;10.540;2023-06-26T07:51:58;18.63;;;8.93;;
16101;SDS011;56411;52.964;10.540;2023-06-26T07:54:25;11.05;;;6.82;;
16101;SDS011;56411;52.964;10.540;2023-06-26T07:56:53;11.10;;;6.68;;
16101;SDS011;56411;52.964;10.540;2023-06-26T07:59:21;10.50;;;6.85;;
16101;SDS011;56411;52.964;10.540;2023-06-26T08:01:51;12.25;;;6.93;;
16101;SDS011;56411;52.964;10.540;2023-06-26T08:04:21;12.32;;;7.18;;
16101;SDS011;56411;52.964;10.540;2023-06-26T08:06:49;11.52;;;7.15;;
16101;SDS011;56411;52.964;10.540;2023-06-26T08:09:17;16.35;;;9.75;;
16101;SDS011;56411;52.964;10.540;2023-06-26T08:11:45;10.70;;;6.65;;
16101;SDS011;56411;52.964;10.540;2023-06-26T08:14:13;10.90;;;6.75;;
16101;SDS011;56411;52.964;10.540;2023-06-26T08:16:41;13.10;;;7.18;;
16101;SDS011;56411;52.964;10.540;2023-06-26T08:19:11;11.73;;;6.97;;
16101;SDS011;56411;52.964;10.540;2023-06-26T08:21:38;10.85;;;6.93;;
16101;SDS011;56411;52.964;10.540;2023-06-26T08:24:05;12.57;;;7.15;;
16101;SDS011;56411;52.964;10.540;2023-06-26T08:26:32;11.82;;;7.40;;
16101;SDS011;56411;52.964;10.540;2023-06-26T08:29:00;11.18;;;7.03;;
16101;SDS011;56411;52.964;10.540;2023-06-26T08:31:32;11.30;;;6.85;;
16101;SDS011;56411;52.964;10.540;2023-06-26T08:34:00;12.77;;;7.18;;
16101;SDS011;56411;52.964;10.540;2023-06-26T08:36:29;12.25;;;7.28;;
16101;SDS011;56411;52.964;10.540;2023-06-26T08:38:56;11.68;;;7.28;;
16101;SDS011;56411;52.964;10.540;2023-06-26T08:41:24;12.15;;;7.28;;
16101;SDS011;56411;52.964;10.540;2023-06-26T08:43:51;10.98;;;6.90;;
16101;SDS011;56411;52.964;10.540;2023-06-26T08:46:18;11.82;;;7.40;;
16101;SDS011;56411;52.964;10.540;2023-06-26T08:48:48;10.85;;;7.00;;
16101;SDS011;56411;52.964;10.540;2023-06-26T08:51:21;11.43;;;7.05;;
16101;SDS011;56411;52.964;10.540;2023-06-26T08:53:55;11.52;;;7.47;;
16101;SDS011;56411;52.964;10.540;2023-06-26T08:56:24;12.15;;;7.28;;
16101;SDS011;56411;52.964;10.540;2023-06-26T08:58:54;12.40;;;7.35;;
16101;SDS011;56411;52.964;10.540;2023-06-26T09:01:21;12.00;;;7.25;;
16101;SDS011;56411;52.964;10.540;2023-06-26T09:03:49;11.65;;;7.22;;
16101;SDS011;56411;52.964;10.540;2023-06-26T09:06:17;11.65;;;7.18;;
16101;SDS011;56411;52.964;10.540;2023-06-26T09:08:44;10.93;;;6.82;;
16101;SDS011;56411;52.964;10.540;2023-06-26T09:11:13;10.73;;;7.03;;
16101;SDS011;56411;52.964;10.540;2023-06-26T09:13:40;10.95;;;7.55;;
16101;SDS011;56411;52.964;10.540;2023-06-26T09:16:08;11.75;;;7.57;;
16101;SDS011;56411;52.964;10.540;2023-06-26T09:18:35;11.07;;;7.25;;
16101;SDS011;56411;52.964;10.540;2023-06-26T09:21:05;10.95;;;7.35;;
16101;SDS011;56411;52.964;10.540;2023-06-26T09:23:33;11.95;;;7.38;;
16101;SDS011;56411;52.964;10.540;2023-06-26T09:26:01;11.32;;;7.43;;
16101;SDS011;56411;52.964;10.540;2023-06-26T09:28:31;10.80;;;7.05;;
16101;SDS011;56411;52.964;10.540;2023-06-26T09:31:02;11.93;;;7.38;;
16101;SDS011;56411;52.964;10.540;2023-06-26T09:33:32;11.32;;;6.82;;
16101;SDS011;56411;52.964;10.540;2023-06-26T09:36:02;11.30;;;7.32;;
16101;SDS011;56411;52.964;10.540;2023-06-26T09:38:32;12.68;;;7.30;;
16101;SDS011;56411;52.964;10.540;2023-06-26T09:41:00;12.40;;;7.30;;
16101;SDS011;56411;52.964;10.540;2023-06-26T09:43:27;11.80;;;7.32;;
16101;SDS011;56411;52.964;10.540;2023-06-26T09:45:57;12.15;;;7.18;;
16101;SDS011;56411;52.964;10.540;2023-06-26T09:48:24;11.20;;;7.50;;
16101;SDS011;56411;52.964;10.540;2023-06-26T09:50:51;11.68;;;7.53;;
16101;SDS011;56411;52.964;10.540;2023-06-26T09:53:20;10.57;;;7.15;;
16101;SDS011;56411;52.964;10.540;2023-06-26T09:55:47;11.60;;;7.60;;
16101;SDS011;56411;52.964;10.540;2023-06-26T09:58:14;12.05;;;7.03;;
16101;SDS011;56411;52.964;10.540;2023-06-26T10:00:43;12.45;;;7.38;;
16101;SDS011;56411;52.964;10.540;2023-06-26T10:03:11;11.45;;;7.65;;
16101;SDS011;56411;52.964;10.540;2023-06-26T10:05:38;10.43;;;6.93;;
16101;SDS011;56411;52.964;10.540;2023-06-26T10:08:06;11.75;;;7.28;;
16101;SDS011;56411;52.964;10.540;2023-06-26T10:10:34;11.55;;;7.75;;
16101;SDS011;56411;52.964;10.540;2023-06-26T10:13:04;12.05;;;7.97;;
16101;SDS011;56411;52.964;10.540;2023-06-26T10:15:35;11.50;;;7.90;;
16101;SDS011;56411;52.964;10.540;2023-06-26T10:18:03;14.90;;;8.20;;
16101;SDS011;56411;52.964;10.540;2023-06-26T10:20:32;12.15;;;8.48;;
16101;SDS011;56411;52.964;10.540;2023-06-26T10:23:00;14.88;;;8.82;;
16101;SDS011;56411;52.964;10.540;2023-06-26T10:25:31;12.52;;;8.68;;
16101;SDS011;56411;52.964;10.540;2023-06-26T10:28:00;13.05;;;8.85;;
16101;SDS011;56411;52.964;10.540;2023-06-26T10:30:29;14.15;;;9.35;;
16101;SDS011;56411;52.964;10.540;2023-06-26T10:33:00;13.85;;;9.60;;
16101;SDS011;56411;52.964;10.540;2023-06-26T10:35:29;13.43;;;9.55;;
16101;SDS011;56411;52.964;10.540;2023-06-26T10:38:01;13.00;;;9.52;;
16101;SDS011;56411;52.964;10.540;2023-06-26T10:40:33;16.05;;;9.13;;
16101;SDS011;56411;52.964;10.540;2023-06-26T10:43:07;14.30;;;8.95;;
16101;SDS011;56411;52.964;10.540;2023-06-26T10:45:36;12.60;;;9.43;;
16101;SDS011;56411;52.964;10.540;2023-06-26T10:48:03;14.65;;;8.93;;
16101;SDS011;56411;52.964;10.540;2023-06-26T10:50:31;14.52;;;9.13;;
16101;SDS011;56411;52.964;10.540;2023-06-26T10:53:11;14.82;;;10.38;;
16101;SDS011;56411;52.964;10.540;2023-06-26T10:55:41;14.73;;;10.30;;
16101;SDS011;56411;52.964;10.540;2023-06-26T11:01:17;17.55;;;10.48;;
16101;SDS011;56411;52.964;10.540;2023-06-26T11:03:46;16.95;;;11.45;;
16101;SDS011;56411;52.964;10.540;2023-06-26T11:06:15;19.52;;;10.55;;
16101;SDS011;56411;52.964;10.540;2023-06-26T11:08:45;14.23;;;9.70;;
16101;SDS011;56411;52.964;10.540;2023-06-26T11:11:13;14.63;;;9.00;;
16101;SDS011;56411;52.964;10.540;2023-06-26T11:13:40;14.32;;;8.63;;
16101;SDS011;56411;52.964;10.540;2023-06-26T11:16:08;14.05;;;8.50;;
16101;SDS011;56411;52.964;10.540;2023-06-26T11:18:37;14.52;;;8.43;;
16101;SDS011;56411;52.964;10.540;2023-06-26T11:21:05;12.90;;;9.30;;
16101;SDS011;56411;52.964;10.540;2023-06-26T11:23:33;14.63;;;8.02;;
16101;SDS011;56411;52.964;10.540;2023-06-26T11:26:18;13.65;;;8.07;;
16101;SDS011;56411;52.964;10.540;2023-06-26T11:28:47;16.73;;;9.25;;
16101;SDS011;56411;52.964;10.540;2023-06-26T11:31:25;18.63;;;10.15;;
16101;SDS011;56411;52.964;10.540;2023-06-26T11:33:55;17.75;;;9.70;;
16101;SDS011;56411;52.964;10.540;2023-06-26T11:36:24;15.85;;;10.30;;
16101;SDS011;56411;52.964;10.540;2023-06-26T11:38:55;18.73;;;12.13;;
16101;SDS011;56411;52.964;10.540;2023-06-26T11:41:25;17.77;;;12.98;;
16101;SDS011;56411;52.964;10.540;2023-06-26T11:43:53;19.10;;;14.73;;
16101;SDS011;56411;52.964;10.540;2023-06-26T11:46:21;21.40;;;14.07;;
16101;SDS011;56411;52.964;10.540;2023-06-26T11:48:48;18.77;;;13.43;;
16101;SDS011;56411;52.964;10.540;2023-06-26T11:51:15;19.60;;;13.85;;
16101;SDS011;56411;52.964;10.540;2023-06-26T11:53:43;18.20;;;12.38;;
16101;SDS011;56411;52.964;10.540;2023-06-26T11:56:12;18.95;;;13.13;;
16101;SDS011;56411;52.964;10.540;2023-06-26T11:58:56;20.33;;;12.88;;
16101;SDS011;56411;52.964;10.540;2023-06-26T12:01:26;16.30;;;11.18;;
16101;SDS011;56411;52.964;10.540;2023-06-26T12:03:58;17.80;;;11.80;;
16101;SDS011;56411;52.964;10.540;2023-06-26T12:06:28;14.90;;;11.27;;
16101;SDS011;56411;52.964;10.540;2023-06-26T12:08:56;15.60;;;10.95;;
16101;SDS011;56411;52.964;10.540;2023-06-26T12:11:25;17.67;;;11.63;;
16101;SDS011;56411;52.964;10.540;2023-06-26T12:13:53;15.48;;;10.93;;
16101;SDS011;56411;52.964;10.540;2023-06-26T12:16:22;17.55;;;11.30;;
16101;SDS011;56411;52.964;10.540;2023-06-26T12:18:50;16.52;;;10.82;;
16101;SDS011;56411;52.964;10.540;2023-06-26T12:21:33;15.15;;;10.55;;
16101;SDS011;56411;52.964;10.540;2023-06-26T12:24:13;17.05;;;11.23;;
16101;SDS011;56411;52.964;10.540;2023-06-26T12:26:41;15.55;;;10.10;;
16101;SDS011;56411;52.964;10.540;2023-06-26T12:29:10;16.40;;;9.02;;
16101;SDS011;56411;52.964;10.540;2023-06-26T12:31:40;13.82;;;8.68;;
16101;SDS011;56411;52.964;10.540;2023-06-26T12:34:09;15.48;;;8.27;;
16101;SDS011;56411;52.964;10.540;2023-06-26T12:36:40;13.43;;;7.47;;
16101;SDS011;56411;52.964;10.540;2023-06-26T12:39:09;12.40;;;7.07;;
16101;SDS011;56411;52.964;10.540;2023-06-26T12:41:43;14.30;;;7.13;;
16101;SDS011;56411;52.964;10.540;2023-06-26T12:44:18;13.98;;;6.65;;
16101;SDS011;56411;52.964;10.540;2023-06-26T12:46:48;13.00;;;6.00;;
16101;SDS011;56411;52.964;10.540;2023-06-26T12:49:16;12.77;;;5.53;;
16101;SDS011;56411;52.964;10.540;2023-06-26T12:51:44;10.95;;;5.40;;
16101;SDS011;56411;52.964;10.540;2023-06-26T12:54:12;12.00;;;5.43;;
16101;SDS011;56411;52.964;10.540;2023-06-26T12:56:39;11.02;;;4.88;;
16101;SDS011;56411;52.964;10.540;2023-06-26T12:59:06;11.70;;;5.20;;
16101;SDS011;56411;52.964;10.540;2023-06-26T13:01:33;9.73;;;5.05;;
16101;SDS011;56411;52.964;10.540;2023-06-26T13:04:01;11.35;;;5.20;;
16101;SDS011;56411;52.964;10.540;2023-06-26T13:06:29;12.63;;;5.43;;
16101;SDS011;56411;52.964;10.540;2023-06-26T13:08:57;10.35;;;5.22;;
16101;SDS011;56411;52.964;10.540;2023-06-26T13:11:24;11.85;;;5.20;;
16101;SDS011;56411;52.964;10.540;2023-06-26T13:13:51;11.65;;;5.18;;
16101;SDS011;56411;52.964;10.540;2023-06-26T13:16:18;12.95;;;5.03;;
16101;SDS011;56411;52.964;10.540;2023-06-26T13:18:45;10.80;;;5.22;;
16101;SDS011;56411;52.964;10.540;2023-06-26T13:21:14;11.32;;;5.38;;
16101;SDS011;56411;52.964;10.540;2023-06-26T13:23:42;13.45;;;5.30;;
16101;SDS011;56411;52.964;10.540;2023-06-26T13:26:09;11.82;;;5.50;;
16101;SDS011;56411;52.964;10.540;2023-06-26T13:28:37;12.50;;;5.25;;
16101;SDS011;56411;52.964;10.540;2023-06-26T13:31:04;11.30;;;4.80;;
16101;SDS011;56411;52.964;10.540;2023-06-26T13:33:31;13.05;;;5.18;;
16101;SDS011;56411;52.964;10.540;2023-06-26T13:35:58;9.57;;;4.22;;
16101;SDS011;56411;52.964;10.540;2023-06-26T13:38:26;10.50;;;4.50;;
16101;SDS011;56411;52.964;10.540;2023-06-26T13:40:54;11.25;;;4.30;;
16101;SDS011;56411;52.964;10.540;2023-06-26T13:43:22;8.63;;;4.05;;
16101;SDS011;56411;52.964;10.540;2023-06-26T13:45:49;9.73;;;3.88;;
16101;SDS011;56411;52.964;10.540;2023-06-26T13:48:16;13.32;;;3.80;;
16101;SDS011;56411;52.964;10.540;2023-06-26T13:50:43;7.20;;;3.00;;
16101;SDS011;56411;52.964;10.540;2023-06-26T13:53:11;10.18;;;3.42;;
16101;SDS011;56411;52.964;10.540;2023-06-26T13:55:40;7.55;;;3.03;;
16101;SDS011;56411;52.964;10.540;2023-06-26T13:58:08;13.65;;;3.50;;
16101;SDS011;56411;52.964;10.540;2023-06-26T14:00:35;10.45;;;3.50;;
16101;SDS011;56411;52.964;10.540;2023-06-26T14:03:03;7.00;;;3.00;;
16101;SDS011;56411;52.964;10.540;2023-06-26T14:05:31;7.60;;;2.97;;
16101;SDS011;56411;52.964;10.540;2023-06-26T14:07:58;8.75;;;3.00;;
16101;SDS011;56411;52.964;10.540;2023-06-26T14:10:25;10.30;;;3.20;;
16101;SDS011;56411;52.964;10.540;2023-06-26T14:12:54;8.48;;;2.80;;
16101;SDS011;56411;52.964;10.540;2023-06-26T14:15:21;7.53;;;3.00;;
16101;SDS011;56411;52.964;10.540;2023-06-26T14:17:48;8.57;;;3.05;;
16101;SDS011;56411;52.964;10.540;2023-06-26T14:20:16;7.88;;;3.38;;
16101;SDS011;56411;52.964;10.540;2023-06-26T14:22:45;10.63;;;3.15;;
16101;SDS011;56411;52.964;10.540;2023-06-26T14:25:13;9.85;;;3.28;;